sensor_id;sensor_type;location;lat;lon;timestamp;pressure;altitude;pressure_sealevel;temperature;humidity
64064;BME280;50314;50.618;10.642;2023-03-15T00:01:14;95983.22;;;15.97;24.18
64064;BME280;50314;50.618;10.642;2023-03-15T00:03:41;95981.22;;;16.00;24.18
64064;BME280;50314;50.618;10.642;2023-03-15T00:06:07;95982.03;;;16.00;24.18
64064;BME280;50314;50.618;10.642;2023-03-15T00:08:33;95992.50;;;16.02;24.01
64064;BME280;50314;50.618;10.642;2023-03-15T00:10:59;95990.34;;;15.97;24.23
64064;BME280;50314;50.618;10.642;2023-03-15T00:13:25;95994.81;;;15.96;24.15
64064;BME280;50314;50.618;10.642;2023-03-15T00:15:52;96001.81;;;15.97;24.20
64064;BME280;50314;50.618;10.642;2023-03-15T00:18:20;95995.63;;;15.97;24.15
64064;BME280;50314;50.618;10.642;2023-03-15T00:20:46;96007.13;;;15.97;24.23
64064;BME280;50314;50.618;10.642;2023-03-15T00:23:12;96012.59;;;15.96;24.16
64064;BME280;50314;50.618;10.642;2023-03-15T00:25:38;96015.22;;;15.96;24.35
64064;BME280;50314;50.618;10.642;2023-03-15T00:28:05;96015.41;;;15.94;24.39
64064;BME280;50314;50.618;10.642;2023-03-15T00:30:31;96023.38;;;15.94;24.14
64064;BME280;50314;50.618;10.642;2023-03-15T00:32:57;96033.00;;;15.95;24.22
64064;BME280;50314;50.618;10.642;2023-03-15T00:35:22;96028.69;;;15.94;24.14
64064;BME280;50314;50.618;10.642;2023-03-15T00:37:52;96037.63;;;15.93;24.16
64064;BME280;50314;50.618;10.642;2023-03-15T00:40:19;96034.16;;;15.93;24.22
64064;BME280;50314;50.618;10.642;2023-03-15T00:42:44;96036.81;;;15.93;24.36
64064;BME280;50314;50.618;10.642;2023-03-15T00:45:14;96038.63;;;15.92;24.15
64064;BME280;50314;50.618;10.642;2023-03-15T00:47:40;96040.47;;;15.92;24.18
64064;BME280;50314;50.618;10.642;2023-03-15T00:50:05;96044.94;;;15.91;24.35
64064;BME280;50314;50.618;10.642;2023-03-15T00:52:35;96037.13;;;15.90;24.40
64064;BME280;50314;50.618;10.642;2023-03-15T00:55:00;96043.25;;;15.90;24.34
64064;BME280;50314;50.618;10.642;2023-03-15T00:57:26;96045.09;;;15.90;24.08
64064;BME280;50314;50.618;10.642;2023-03-15T00:59:51;96043.44;;;15.89;24.09
64064;BME280;50314;50.618;10.642;2023-03-15T01:02:18;96042.75;;;15.87;24.26
64064;BME280;50314;50.618;10.642;2023-03-15T01:04:48;96043.94;;;15.84;24.36
64064;BME280;50314;50.618;10.642;2023-03-15T01:07:15;96044.75;;;15.85;24.44
64064;BME280;50314;50.618;10.642;2023-03-15T01:09:41;96049.91;;;15.86;24.24
64064;BME280;50314;50.618;10.642;2023-03-15T01:12:06;96050.91;;;15.85;24.20
64064;BME280;50314;50.618;10.642;2023-03-15T01:14:32;96050.06;;;15.85;23.92
64064;BME280;50314;50.618;10.642;2023-03-15T01:16:59;96054.56;;;15.84;24.16
64064;BME280;50314;50.618;10.642;2023-03-15T01:19:25;96047.56;;;15.83;24.12
64064;BME280;50314;50.618;10.642;2023-03-15T01:21:50;96046.91;;;15.81;24.16
64064;BME280;50314;50.618;10.642;2023-03-15T01:24:16;96057.34;;;15.83;24.30
64064;BME280;50314;50.618;10.642;2023-03-15T01:26:41;96053.19;;;15.80;24.17
64064;BME280;50314;50.618;10.642;2023-03-15T01:29:07;96067.34;;;15.81;24.46
64064;BME280;50314;50.618;10.642;2023-03-15T01:31:32;96063.00;;;15.80;24.28
64064;BME280;50314;50.618;10.642;2023-03-15T01:33:58;96066.47;;;15.80;24.05
64064;BME280;50314;50.618;10.642;2023-03-15T01:36:25;96070.81;;;15.81;24.19
64064;BME280;50314;50.618;10.642;2023-03-15T01:38:50;96077.25;;;15.79;24.11
64064;BME280;50314;50.618;10.642;2023-03-15T01:41:17;96070.13;;;15.79;24.02
64064;BME280;50314;50.618;10.642;2023-03-15T01:43:43;96074.63;;;15.79;24.34
64064;BME280;50314;50.618;10.642;2023-03-15T01:51:52;96085.03;;;15.72;24.16
64064;BME280;50314;50.618;10.642;2023-03-15T01:57:12;96084.69;;;15.67;24.25
64064;BME280;50314;50.618;10.642;2023-03-15T01:59:43;96086.50;;;15.66;24.46
64064;BME280;50314;50.618;10.642;2023-03-15T02:02:10;96081.06;;;15.68;24.11
64064;BME280;50314;50.618;10.642;2023-03-15T02:04:45;96086.50;;;15.66;24.29
64064;BME280;50314;50.618;10.642;2023-03-15T02:07:13;96088.19;;;15.67;24.32
64064;BME280;50314;50.618;10.642;2023-03-15T02:09:50;96100.94;;;15.64;24.24
64064;BME280;50314;50.618;10.642;2023-03-15T02:12:18;96105.91;;;15.67;24.32
64064;BME280;50314;50.618;10.642;2023-03-15T02:14:44;96105.25;;;15.65;24.33
64064;BME280;50314;50.618;10.642;2023-03-15T02:17:10;96103.59;;;15.64;24.19
64064;BME280;50314;50.618;10.642;2023-03-15T02:19:53;96112.53;;;15.63;24.34
64064;BME280;50314;50.618;10.642;2023-03-15T02:22:45;96106.06;;;15.57;24.35
64064;BME280;50314;50.618;10.642;2023-03-15T02:27:39;96106.56;;;15.61;24.30
64064;BME280;50314;50.618;10.642;2023-03-15T02:30:06;96102.22;;;15.60;24.21
64064;BME280;50314;50.618;10.642;2023-03-15T02:32:32;96102.91;;;15.62;24.06
64064;BME280;50314;50.618;10.642;2023-03-15T02:34:58;96098.63;;;15.61;24.25
64064;BME280;50314;50.618;10.642;2023-03-15T02:37:24;96110.06;;;15.61;24.16
64064;BME280;50314;50.618;10.642;2023-03-15T02:39:49;96105.72;;;15.60;24.35
64064;BME280;50314;50.618;10.642;2023-03-15T02:42:15;96110.50;;;15.57;24.23
64064;BME280;50314;50.618;10.642;2023-03-15T02:44:43;96119.47;;;15.56;24.15
64064;BME280;50314;50.618;10.642;2023-03-15T02:47:13;96124.13;;;15.54;24.22
64064;BME280;50314;50.618;10.642;2023-03-15T02:49:44;96135.72;;;15.53;24.42
64064;BME280;50314;50.618;10.642;2023-03-15T02:52:11;96129.56;;;15.52;24.48
64064;BME280;50314;50.618;10.642;2023-03-15T02:54:38;96132.41;;;15.50;24.38
64064;BME280;50314;50.618;10.642;2023-03-15T02:57:14;96145.69;;;15.50;24.49
64064;BME280;50314;50.618;10.642;2023-03-15T02:59:40;96147.66;;;15.48;24.32
64064;BME280;50314;50.618;10.642;2023-03-15T03:02:09;96155.59;;;15.48;24.11
64064;BME280;50314;50.618;10.642;2023-03-15T03:04:38;96153.94;;;15.47;24.25
64064;BME280;50314;50.618;10.642;2023-03-15T03:07:04;96155.78;;;15.47;24.44
64064;BME280;50314;50.618;10.642;2023-03-15T03:09:29;96158.56;;;15.45;24.40
64064;BME280;50314;50.618;10.642;2023-03-15T03:11:55;96155.91;;;15.45;24.55
64064;BME280;50314;50.618;10.642;2023-03-15T03:14:20;96161.53;;;15.42;24.13
64064;BME280;50314;50.618;10.642;2023-03-15T03:16:48;96161.59;;;15.33;24.57
64064;BME280;50314;50.618;10.642;2023-03-15T03:19:13;96163.63;;;15.39;24.13
64064;BME280;50314;50.618;10.642;2023-03-15T03:21:39;96167.13;;;15.39;24.24
64064;BME280;50314;50.618;10.642;2023-03-15T03:24:07;96169.94;;;15.38;24.12
64064;BME280;50314;50.618;10.642;2023-03-15T03:26:33;96177.72;;;15.39;24.39
64064;BME280;50314;50.618;10.642;2023-03-15T03:28:58;96185.03;;;15.37;24.54
64064;BME280;50314;50.618;10.642;2023-03-15T03:31:26;96193.81;;;15.38;24.18
64064;BME280;50314;50.618;10.642;2023-03-15T03:33:52;96190.66;;;15.34;24.54
64064;BME280;50314;50.618;10.642;2023-03-15T03:36:18;96190.66;;;15.34;24.18
64064;BME280;50314;50.618;10.642;2023-03-15T03:38:45;96193.44;;;15.33;24.47
64064;BME280;50314;50.618;10.642;2023-03-15T03:41:11;96203.19;;;15.24;24.49
64064;BME280;50314;50.618;10.642;2023-03-15T03:43:37;96206.34;;;15.27;24.22
64064;BME280;50314;50.618;10.642;2023-03-15T03:46:03;96210.84;;;15.27;24.14
64064;BME280;50314;50.618;10.642;2023-03-15T03:48:29;96216.13;;;15.27;24.08
64064;BME280;50314;50.618;10.642;2023-03-15T03:50:56;96216.13;;;15.27;24.40
64064;BME280;50314;50.618;10.642;2023-03-15T03:53:21;96220.75;;;15.25;24.23
64064;BME280;50314;50.618;10.642;2023-03-15T03:55:47;96220.91;;;15.23;24.49
64064;BME280;50314;50.618;10.642;2023-03-15T03:58:13;96216.59;;;15.22;24.19
64064;BME280;50314;50.618;10.642;2023-03-15T04:00:38;96210.44;;;15.22;24.27
64064;BME280;50314;50.618;10.642;2023-03-15T04:03:04;96213.09;;;15.22;24.38
64064;BME280;50314;50.618;10.642;2023-03-15T04:05:29;96209.63;;;15.21;24.46
64064;BME280;50314;50.618;10.642;2023-03-15T04:07:55;96209.78;;;15.20;24.26
64064;BME280;50314;50.618;10.642;2023-03-15T04:10:20;96215.22;;;15.18;24.10
64064;BME280;50314;50.618;10.642;2023-03-15T04:12:55;96226.97;;;15.16;24.21
64064;BME280;50314;50.618;10.642;2023-03-15T04:15:22;96230.44;;;15.16;24.20
64064;BME280;50314;50.618;10.642;2023-03-15T04:17:49;96226.31;;;15.14;24.11
64064;BME280;50314;50.618;10.642;2023-03-15T04:20:20;96228.13;;;15.13;24.20
64064;BME280;50314;50.618;10.642;2023-03-15T04:22:46;96223.78;;;15.12;24.22
64064;BME280;50314;50.618;10.642;2023-03-15T04:25:16;96237.00;;;15.04;24.49
64064;BME280;50314;50.618;10.642;2023-03-15T04:27:42;96240.84;;;15.10;24.20
64064;BME280;50314;50.618;10.642;2023-03-15T04:30:08;96243.81;;;15.07;24.40
64064;BME280;50314;50.618;10.642;2023-03-15T04:32:34;96235.00;;;15.06;24.12
64064;BME280;50314;50.618;10.642;2023-03-15T04:34:59;96247.44;;;15.06;24.27
64064;BME280;50314;50.618;10.642;2023-03-15T04:37:27;96255.41;;;15.06;24.32
64064;BME280;50314;50.618;10.642;2023-03-15T04:39:52;96257.38;;;15.03;24.31
64064;BME280;50314;50.618;10.642;2023-03-15T04:42:18;96253.91;;;15.03;24.39
64064;BME280;50314;50.618;10.642;2023-03-15T04:44:43;96254.88;;;15.02;24.49
64064;BME280;50314;50.618;10.642;2023-03-15T04:47:09;96260.34;;;15.00;24.15
64064;BME280;50314;50.618;10.642;2023-03-15T04:49:34;96256.84;;;15.00;24.46
64064;BME280;50314;50.618;10.642;2023-03-15T04:52:00;96263.28;;;14.97;24.10
64064;BME280;50314;50.618;10.642;2023-03-15T04:54:26;96266.94;;;14.96;24.37
64064;BME280;50314;50.618;10.642;2023-03-15T04:56:51;96272.25;;;14.96;24.37
64064;BME280;50314;50.618;10.642;2023-03-15T04:59:17;96273.19;;;14.95;24.28
64064;BME280;50314;50.618;10.642;2023-03-15T05:01:42;96273.38;;;14.94;24.08
64064;BME280;50314;50.618;10.642;2023-03-15T05:04:08;96273.38;;;14.94;24.10
64064;BME280;50314;50.618;10.642;2023-03-15T05:06:33;96276.16;;;14.92;24.52
64064;BME280;50314;50.618;10.642;2023-03-15T05:08:59;96278.81;;;14.92;24.51
64064;BME280;50314;50.618;10.642;2023-03-15T05:11:24;96279.97;;;14.90;24.24
64064;BME280;50314;50.618;10.642;2023-03-15T05:13:50;96286.09;;;14.90;24.38
64064;BME280;50314;50.618;10.642;2023-03-15T05:16:15;96285.41;;;14.88;24.48
64064;BME280;50314;50.618;10.642;2023-03-15T05:18:41;96277.63;;;14.87;24.67
64064;BME280;50314;50.618;10.642;2023-03-15T05:21:06;96284.72;;;14.86;24.35
64064;BME280;50314;50.618;10.642;2023-03-15T05:23:31;96284.72;;;14.86;24.63
64064;BME280;50314;50.618;10.642;2023-03-15T05:26:00;96296.31;;;14.85;24.49
64064;BME280;50314;50.618;10.642;2023-03-15T05:28:26;96296.31;;;14.85;24.57
64064;BME280;50314;50.618;10.642;2023-03-15T05:30:52;96307.91;;;14.84;24.51
64064;BME280;50314;50.618;10.642;2023-03-15T05:33:18;96310.56;;;14.84;24.71
64064;BME280;50314;50.618;10.642;2023-03-15T05:35:44;96321.16;;;14.84;24.46
64064;BME280;50314;50.618;10.642;2023-03-15T05:38:13;96330.22;;;14.82;24.36
64064;BME280;50314;50.618;10.642;2023-03-15T05:40:42;96332.88;;;14.82;24.51
64064;BME280;50314;50.618;10.642;2023-03-15T05:43:08;96347.66;;;14.84;24.43
64064;BME280;50314;50.618;10.642;2023-03-15T05:45:34;96339.03;;;14.82;24.51
64064;BME280;50314;50.618;10.642;2023-03-15T05:48:00;96344.31;;;14.82;24.34
64064;BME280;50314;50.618;10.642;2023-03-15T05:50:25;96348.66;;;14.83;24.71
64064;BME280;50314;50.618;10.642;2023-03-15T05:52:52;96348.66;;;14.83;24.60
64064;BME280;50314;50.618;10.642;2023-03-15T05:55:18;96352.28;;;14.82;24.76
64064;BME280;50314;50.618;10.642;2023-03-15T05:57:44;96346.00;;;14.83;24.44
64064;BME280;50314;50.618;10.642;2023-03-15T06:00:12;96351.31;;;14.83;24.75
64064;BME280;50314;50.618;10.642;2023-03-15T06:02:40;96350.31;;;14.84;24.43
64064;BME280;50314;50.618;10.642;2023-03-15T06:05:05;96358.41;;;14.83;24.50
64064;BME280;50314;50.618;10.642;2023-03-15T06:07:31;96350.31;;;14.84;24.56
64064;BME280;50314;50.618;10.642;2023-03-15T06:09:57;96358.28;;;14.84;24.49
64064;BME280;50314;50.618;10.642;2023-03-15T06:12:22;96356.63;;;14.83;24.74
64064;BME280;50314;50.618;10.642;2023-03-15T06:14:47;96361.91;;;14.83;24.68
64064;BME280;50314;50.618;10.642;2023-03-15T06:17:13;96363.56;;;14.84;24.34
64064;BME280;50314;50.618;10.642;2023-03-15T06:19:38;96366.22;;;14.84;24.30
64064;BME280;50314;50.618;10.642;2023-03-15T06:22:04;96360.94;;;14.84;24.33
64064;BME280;50314;50.618;10.642;2023-03-15T06:24:29;96365.41;;;14.84;24.64
64064;BME280;50314;50.618;10.642;2023-03-15T06:26:55;96366.22;;;14.84;24.50
64064;BME280;50314;50.618;10.642;2023-03-15T06:29:21;96363.56;;;14.84;24.66
64064;BME280;50314;50.618;10.642;2023-03-15T06:31:47;96378.66;;;14.84;24.48
64064;BME280;50314;50.618;10.642;2023-03-15T06:34:17;96376.84;;;14.84;24.69
64064;BME280;50314;50.618;10.642;2023-03-15T06:36:43;96376.00;;;14.84;24.72
64064;BME280;50314;50.618;10.642;2023-03-15T06:39:09;96376.84;;;14.84;24.46
64064;BME280;50314;50.618;10.642;2023-03-15T06:41:37;96379.47;;;14.84;24.79
64064;BME280;50314;50.618;10.642;2023-03-15T06:44:03;96382.13;;;14.84;24.74
64064;BME280;50314;50.618;10.642;2023-03-15T06:46:29;96385.78;;;14.83;24.35
64064;BME280;50314;50.618;10.642;2023-03-15T06:48:54;96381.16;;;14.85;24.55
64064;BME280;50314;50.618;10.642;2023-03-15T06:51:21;96388.13;;;14.86;24.30
64064;BME280;50314;50.618;10.642;2023-03-15T06:53:47;96389.78;;;14.87;24.75
64064;BME280;50314;50.618;10.642;2023-03-15T06:56:13;96389.78;;;14.87;24.73
64064;BME280;50314;50.618;10.642;2023-03-15T06:58:38;96397.75;;;14.87;24.71
64064;BME280;50314;50.618;10.642;2023-03-15T07:01:04;96402.88;;;14.89;24.72
64064;BME280;50314;50.618;10.642;2023-03-15T07:03:29;96405.41;;;14.90;24.65
64064;BME280;50314;50.618;10.642;2023-03-15T07:05:55;96405.41;;;14.90;24.78
64064;BME280;50314;50.618;10.642;2023-03-15T07:08:21;96405.41;;;14.90;25.21
64064;BME280;50314;50.618;10.642;2023-03-15T07:10:47;96403.72;;;14.89;24.77
64064;BME280;50314;50.618;10.642;2023-03-15T07:13:15;96402.06;;;14.88;25.08
64064;BME280;50314;50.618;10.642;2023-03-15T07:15:40;96406.38;;;14.89;24.97
64064;BME280;50314;50.618;10.642;2023-03-15T07:18:06;96413.22;;;14.92;24.89
64064;BME280;50314;50.618;10.642;2023-03-15T07:20:31;96428.16;;;14.93;24.98
64064;BME280;50314;50.618;10.642;2023-03-15T07:22:57;96410.56;;;14.92;24.80
64064;BME280;50314;50.618;10.642;2023-03-15T07:25:22;96417.69;;;14.91;24.74
64064;BME280;50314;50.618;10.642;2023-03-15T07:27:50;96423.84;;;14.82;25.00
64064;BME280;50314;50.618;10.642;2023-03-15T07:30:17;96421.75;;;14.86;24.80
64064;BME280;50314;50.618;10.642;2023-03-15T07:32:43;96415.78;;;14.84;24.30
64064;BME280;50314;50.618;10.642;2023-03-15T07:35:09;96417.72;;;14.82;24.03
64064;BME280;50314;50.618;10.642;2023-03-15T07:37:35;96415.53;;;14.77;23.56
64064;BME280;50314;50.618;10.642;2023-03-15T07:40:00;96424.75;;;14.73;23.06
64064;BME280;50314;50.618;10.642;2023-03-15T07:42:36;96427.00;;;14.68;22.65
64064;BME280;50314;50.618;10.642;2023-03-15T07:45:03;96430.59;;;14.67;23.18
64064;BME280;50314;50.618;10.642;2023-03-15T07:47:29;96436.72;;;14.67;23.52
64064;BME280;50314;50.618;10.642;2023-03-15T07:49:55;96431.31;;;14.69;23.66
64064;BME280;50314;50.618;10.642;2023-03-15T07:52:20;96440.13;;;14.69;23.33
64064;BME280;50314;50.618;10.642;2023-03-15T07:54:46;96436.31;;;14.72;23.69
64064;BME280;50314;50.618;10.642;2023-03-15T07:57:12;96437.16;;;14.72;23.61
64064;BME280;50314;50.618;10.642;2023-03-15T07:59:37;96441.63;;;14.72;23.39
64064;BME280;50314;50.618;10.642;2023-03-15T08:02:03;96445.97;;;14.73;23.43
64064;BME280;50314;50.618;10.642;2023-03-15T08:04:29;96443.16;;;14.74;23.80
64064;BME280;50314;50.618;10.642;2023-03-15T08:06:54;96448.44;;;14.74;23.75
64064;BME280;50314;50.618;10.642;2023-03-15T08:09:20;96446.63;;;14.75;23.73
64064;BME280;50314;50.618;10.642;2023-03-15T08:11:45;96445.69;;;14.76;24.01
64064;BME280;50314;50.618;10.642;2023-03-15T08:14:11;96447.34;;;14.77;23.92
64064;BME280;50314;50.618;10.642;2023-03-15T08:16:36;96447.34;;;14.77;24.04
64064;BME280;50314;50.618;10.642;2023-03-15T08:19:02;96446.34;;;14.78;23.94
64064;BME280;50314;50.618;10.642;2023-03-15T08:21:27;96448.00;;;14.79;23.94
64064;BME280;50314;50.618;10.642;2023-03-15T08:23:53;96447.03;;;14.80;23.96
64064;BME280;50314;50.618;10.642;2023-03-15T08:26:18;96459.31;;;14.81;24.29
64064;BME280;50314;50.618;10.642;2023-03-15T08:28:44;96462.97;;;14.80;23.91
64064;BME280;50314;50.618;10.642;2023-03-15T08:31:09;96461.97;;;14.81;24.12
64064;BME280;50314;50.618;10.642;2023-03-15T08:33:38;96465.44;;;14.82;24.07
64064;BME280;50314;50.618;10.642;2023-03-15T08:36:04;96461.81;;;14.83;24.17
64064;BME280;50314;50.618;10.642;2023-03-15T08:38:30;96467.97;;;14.83;24.17
64064;BME280;50314;50.618;10.642;2023-03-15T08:40:56;96469.63;;;14.84;24.06
64064;BME280;50314;50.618;10.642;2023-03-15T08:43:22;96470.47;;;14.85;24.38
64064;BME280;50314;50.618;10.642;2023-03-15T08:45:48;96468.63;;;14.85;24.16
64064;BME280;50314;50.618;10.642;2023-03-15T08:48:14;96475.63;;;14.86;24.64
64064;BME280;50314;50.618;10.642;2023-03-15T08:50:40;96481.91;;;14.85;23.02
64064;BME280;50314;50.618;10.642;2023-03-15T08:53:05;96469.91;;;14.81;23.04
64064;BME280;50314;50.618;10.642;2023-03-15T08:55:30;96472.03;;;14.77;22.88
64064;BME280;50314;50.618;10.642;2023-03-15T08:57:56;96473.16;;;14.75;22.99
64064;BME280;50314;50.618;10.642;2023-03-15T09:00:21;96474.97;;;14.74;23.15
64064;BME280;50314;50.618;10.642;2023-03-15T09:02:48;96481.09;;;14.75;23.04
64064;BME280;50314;50.618;10.642;2023-03-15T09:05:16;96476.63;;;14.75;23.06
64064;BME280;50314;50.618;10.642;2023-03-15T09:07:43;96490.75;;;14.76;23.20
64064;BME280;50314;50.618;10.642;2023-03-15T09:10:10;96492.41;;;14.77;23.50
64064;BME280;50314;50.618;10.642;2023-03-15T09:12:43;96500.34;;;14.77;23.05
64064;BME280;50314;50.618;10.642;2023-03-15T09:15:10;96502.84;;;14.78;23.31
64064;BME280;50314;50.618;10.642;2023-03-15T09:17:37;96508.97;;;14.79;23.21
64064;BME280;50314;50.618;10.642;2023-03-15T09:20:04;96514.28;;;14.79;23.55
64064;BME280;50314;50.618;10.642;2023-03-15T09:22:40;96515.00;;;14.81;23.76
64064;BME280;50314;50.618;10.642;2023-03-15T09:25:06;96514.00;;;14.82;23.84
64064;BME280;50314;50.618;10.642;2023-03-15T09:27:33;96520.13;;;14.83;23.90
64064;BME280;50314;50.618;10.642;2023-03-15T09:29:58;96526.28;;;14.83;23.63
64064;BME280;50314;50.618;10.642;2023-03-15T09:32:24;96529.78;;;14.84;23.60
64064;BME280;50314;50.618;10.642;2023-03-15T09:34:52;96530.59;;;14.84;24.10
64064;BME280;50314;50.618;10.642;2023-03-15T09:37:18;96525.16;;;14.86;23.69
64064;BME280;50314;50.618;10.642;2023-03-15T09:39:46;96536.63;;;14.86;24.07
64064;BME280;50314;50.618;10.642;2023-03-15T09:45:24;96544.84;;;14.83;23.97
64064;BME280;50314;50.618;10.642;2023-03-15T09:48:50;96540.50;;;14.82;24.20
64064;BME280;50314;50.618;10.642;2023-03-15T09:51:12;96546.66;;;14.83;24.08
64064;BME280;50314;50.618;10.642;2023-03-15T09:53:59;96550.16;;;14.83;24.31
64064;BME280;50314;50.618;10.642;2023-03-15T09:56:38;96554.47;;;14.84;24.29
64064;BME280;50314;50.618;10.642;2023-03-15T09:59:05;96548.63;;;14.80;24.45
64064;BME280;50314;50.618;10.642;2023-03-15T10:01:34;96562.97;;;14.88;24.39
64064;BME280;50314;50.618;10.642;2023-03-15T10:06:54;96559.22;;;14.90;24.00
64064;BME280;50314;50.618;10.642;2023-03-15T10:09:23;96560.59;;;14.94;23.97
64064;BME280;50314;50.618;10.642;2023-03-15T10:12:03;96567.00;;;14.92;24.25
64064;BME280;50314;50.618;10.642;2023-03-15T10:14:56;96562.53;;;14.92;24.31
64064;BME280;50314;50.618;10.642;2023-03-15T10:20:29;96568.09;;;14.99;24.65
64064;BME280;50314;50.618;10.642;2023-03-15T10:23:31;96567.44;;;14.97;24.55
64064;BME280;50314;50.618;10.642;2023-03-15T10:26:03;96562.38;;;15.03;24.86
64064;BME280;50314;50.618;10.642;2023-03-15T10:28:30;96564.75;;;15.07;24.70
64064;BME280;50314;50.618;10.642;2023-03-15T10:31:00;96561.09;;;15.08;24.38
64064;BME280;50314;50.618;10.642;2023-03-15T10:33:33;96554.53;;;15.12;24.31
64064;BME280;50314;50.618;10.642;2023-03-15T10:36:07;96563.84;;;15.16;24.61
64064;BME280;50314;50.618;10.642;2023-03-15T10:38:35;96557.59;;;15.17;24.56
64064;BME280;50314;50.618;10.642;2023-03-15T10:41:04;96569.88;;;15.18;24.60
64064;BME280;50314;50.618;10.642;2023-03-15T10:43:33;96572.22;;;15.21;24.34
64064;BME280;50314;50.618;10.642;2023-03-15T10:46:22;96574.88;;;15.21;24.37
64064;BME280;50314;50.618;10.642;2023-03-15T10:49:08;96575.16;;;15.18;24.66
64064;BME280;50314;50.618;10.642;2023-03-15T10:51:41;96572.22;;;15.21;24.44
64064;BME280;50314;50.618;10.642;2023-03-15T10:54:19;96574.88;;;15.21;24.78
64064;BME280;50314;50.618;10.642;2023-03-15T10:57:12;96566.63;;;15.24;24.58
64064;BME280;50314;50.618;10.642;2023-03-15T10:59:59;96570.25;;;15.23;24.71
64064;BME280;50314;50.618;10.642;2023-03-15T11:02:31;96569.66;;;15.29;24.35
64064;BME280;50314;50.618;10.642;2023-03-15T11:05:15;96568.84;;;15.28;24.32
64064;BME280;50314;50.618;10.642;2023-03-15T11:07:56;96569.53;;;15.31;24.42
64064;BME280;50314;50.618;10.642;2023-03-15T11:10:24;96571.63;;;15.37;24.30
64064;BME280;50314;50.618;10.642;2023-03-15T11:13:19;96574.56;;;15.34;24.30
64064;BME280;50314;50.618;10.642;2023-03-15T11:16:33;96571.47;;;15.38;24.34
64064;BME280;50314;50.618;10.642;2023-03-15T11:18:50;96579.41;;;15.38;24.61
64064;BME280;50314;50.618;10.642;2023-03-15T11:21:22;96573.56;;;15.44;24.58
64064;BME280;50314;50.618;10.642;2023-03-15T11:23:50;96575.75;;;15.49;24.53
64064;BME280;50314;50.618;10.642;2023-03-15T11:26:18;96576.31;;;15.53;24.57
64064;BME280;50314;50.618;10.642;2023-03-15T11:28:52;96578.66;;;15.56;24.35
64064;BME280;50314;50.618;10.642;2023-03-15T11:31:19;96569.56;;;15.58;24.34
64064;BME280;50314;50.618;10.642;2023-03-15T11:34:06;96570.69;;;15.56;24.68
64064;BME280;50314;50.618;10.642;2023-03-15T11:36:36;96563.97;;;15.61;24.46
64064;BME280;50314;50.618;10.642;2023-03-15T11:39:03;96559.19;;;15.65;24.32
64064;BME280;50314;50.618;10.642;2023-03-15T11:41:40;96577.78;;;15.65;24.44
64064;BME280;50314;50.618;10.642;2023-03-15T11:52:24;96590.00;;;15.76;24.35
64064;BME280;50314;50.618;10.642;2023-03-15T11:54:54;96591.69;;;15.77;24.48
64064;BME280;50314;50.618;10.642;2023-03-15T11:57:40;96591.84;;;15.75;24.53
64064;BME280;50314;50.618;10.642;2023-03-15T12:02:58;96594.34;;;15.77;24.57
64064;BME280;50314;50.618;10.642;2023-03-15T12:05:51;96587.78;;;15.81;24.41
64064;BME280;50314;50.618;10.642;2023-03-15T12:08:23;96596.63;;;15.89;24.54
64064;BME280;50314;50.618;10.642;2023-03-15T12:16:25;96592.09;;;16.00;24.79
64064;BME280;50314;50.618;10.642;2023-03-15T12:18:52;96592.50;;;16.05;24.63
64064;BME280;50314;50.618;10.642;2023-03-15T12:21:21;96593.88;;;16.09;24.79
64064;BME280;50314;50.618;10.642;2023-03-15T12:23:59;96597.19;;;16.11;24.55
64064;BME280;50314;50.618;10.642;2023-03-15T12:26:40;96600.13;;;16.17;24.48
64064;BME280;50314;50.618;10.642;2023-03-15T12:29:12;96594.91;;;16.26;24.66
64064;BME280;50314;50.618;10.642;2023-03-15T12:34:28;96591.69;;;16.40;24.51
64064;BME280;50314;50.618;10.642;2023-03-15T12:36:58;96605.22;;;16.47;24.54
64064;BME280;50314;50.618;10.642;2023-03-15T12:53:08;96605.44;;;16.89;24.33
64064;BME280;50314;50.618;10.642;2023-03-15T12:55:37;96600.34;;;16.96;24.49
64064;BME280;50314;50.618;10.642;2023-03-15T12:58:05;96599.53;;;17.03;24.39
64064;BME280;50314;50.618;10.642;2023-03-15T13:00:37;96605.72;;;17.12;24.26
64064;BME280;50314;50.618;10.642;2023-03-15T13:05:56;96649.00;;;17.14;24.32
64064;BME280;50314;50.618;10.642;2023-03-15T13:08:24;96651.13;;;17.10;24.30
64064;BME280;50314;50.618;10.642;2023-03-15T13:10:58;96652.88;;;17.20;24.09
64064;BME280;50314;50.618;10.642;2023-03-15T13:21:32;96645.41;;;17.23;23.84
64064;BME280;50314;50.618;10.642;2023-03-15T13:23:58;96642.44;;;17.26;23.92
64064;BME280;50314;50.618;10.642;2023-03-15T13:29:30;96625.78;;;17.24;23.85
64064;BME280;50314;50.618;10.642;2023-03-15T13:32:10;96632.09;;;17.23;24.37
64064;BME280;50314;50.618;10.642;2023-03-15T13:34:37;96651.56;;;17.24;24.01
64064;BME280;50314;50.618;10.642;2023-03-15T13:37:11;96650.03;;;17.21;23.97
64064;BME280;50314;50.618;10.642;2023-03-15T13:39:54;96652.88;;;17.20;24.02
64064;BME280;50314;50.618;10.642;2023-03-15T13:42:22;96648.91;;;17.24;24.01
64064;BME280;50314;50.618;10.642;2023-03-15T13:45:21;96649.03;;;17.22;23.91
64064;BME280;50314;50.618;10.642;2023-03-15T13:47:46;96642.13;;;17.29;24.09
64064;BME280;50314;50.618;10.642;2023-03-15T13:50:18;96652.78;;;17.29;23.89
64064;BME280;50314;50.618;10.642;2023-03-15T13:52:44;96650.47;;;17.34;23.85
64064;BME280;50314;50.618;10.642;2023-03-15T13:55:21;96657.75;;;17.32;23.81
64064;BME280;50314;50.618;10.642;2023-03-15T13:57:55;96666.28;;;17.36;23.85
64064;BME280;50314;50.618;10.642;2023-03-15T14:00:22;96658.81;;;17.40;24.14
64064;BME280;50314;50.618;10.642;2023-03-15T14:02:55;96665.13;;;17.38;23.90
64064;BME280;50314;50.618;10.642;2023-03-15T14:05:31;96671.44;;;17.37;24.04